sensor_id;sensor_type;location;lat;lon;timestamp;temperature;humidity
23719;DHT22;43322;52.230;5.702;2023-06-26T00:01:03;22.40;99.90
23719;DHT22;43322;52.230;5.702;2023-06-26T00:03:30;22.40;99.90
23719;DHT22;43322;52.230;5.702;2023-06-26T00:05:57;22.20;99.90
23719;DHT22;43322;52.230;5.702;2023-06-26T00:08:26;22.20;99.90
23719;DHT22;43322;52.230;5.702;2023-06-26T00:10:54;22.20;99.90
23719;DHT22;43322;52.230;5.702;2023-06-26T00:13:21;22.20;99.90
23719;DHT22;43322;52.230;5.702;2023-06-26T00:15:48;22.30;99.90
23719;DHT22;43322;52.230;5.702;2023-06-26T00:18:15;22.30;99.90
23719;DHT22;43322;52.230;5.702;2023-06-26T00:20:41;22.00;99.90
23719;DHT22;43322;52.230;5.702;2023-06-26T00:23:08;22.00;99.90
23719;DHT22;43322;52.230;5.702;2023-06-26T00:25:34;22.00;99.90
23719;DHT22;43322;52.230;5.702;2023-06-26T00:28:03;21.90;99.90
23719;DHT22;43322;52.230;5.702;2023-06-26T00:30:29;21.90;99.90
23719;DHT22;43322;52.230;5.702;2023-06-26T00:32:56;22.00;99.90
23719;DHT22;43322;52.230;5.702;2023-06-26T00:35:23;22.10;99.90
23719;DHT22;43322;52.230;5.702;2023-06-26T00:37:49;21.90;99.90
23719;DHT22;43322;52.230;5.702;2023-06-26T00:40:16;21.90;99.90
23719;DHT22;43322;52.230;5.702;2023-06-26T00:42:43;21.80;99.90
23719;DHT22;43322;52.230;5.702;2023-06-26T00:45:11;21.80;99.90
23719;DHT22;43322;52.230;5.702;2023-06-26T00:47:37;21.60;99.90
23719;DHT22;43322;52.230;5.702;2023-06-26T00:50:05;21.60;99.90
23719;DHT22;43322;52.230;5.702;2023-06-26T00:52:32;21.60;99.90
23719;DHT22;43322;52.230;5.702;2023-06-26T00:54:59;21.50;99.90
23719;DHT22;43322;52.230;5.702;2023-06-26T00:57:27;21.60;99.90
23719;DHT22;43322;52.230;5.702;2023-06-26T00:59:53;21.60;99.90
23719;DHT22;43322;52.230;5.702;2023-06-26T01:02:21;21.50;99.90
23719;DHT22;43322;52.230;5.702;2023-06-26T01:04:48;21.60;99.90
23719;DHT22;43322;52.230;5.702;2023-06-26T01:07:16;21.70;99.90
23719;DHT22;43322;52.230;5.702;2023-06-26T01:09:44;21.70;99.90
23719;DHT22;43322;52.230;5.702;2023-06-26T01:12:11;21.60;99.90
23719;DHT22;43322;52.230;5.702;2023-06-26T01:14:38;21.60;99.90
23719;DHT22;43322;52.230;5.702;2023-06-26T01:17:04;21.60;99.90
23719;DHT22;43322;52.230;5.702;2023-06-26T01:19:33;21.60;99.90
23719;DHT22;43322;52.230;5.702;2023-06-26T01:22:06;21.50;99.90
23719;DHT22;43322;52.230;5.702;2023-06-26T01:24:44;21.50;99.90
23719;DHT22;43322;52.230;5.702;2023-06-26T01:27:13;21.40;99.90
23719;DHT22;43322;52.230;5.702;2023-06-26T01:29:41;21.40;99.90
23719;DHT22;43322;52.230;5.702;2023-06-26T01:32:08;21.30;99.90
23719;DHT22;43322;52.230;5.702;2023-06-26T01:34:35;21.30;99.90
23719;DHT22;43322;52.230;5.702;2023-06-26T01:37:02;21.30;99.90
23719;DHT22;43322;52.230;5.702;2023-06-26T01:39:29;21.20;99.90
23719;DHT22;43322;52.230;5.702;2023-06-26T01:41:56;21.30;99.90
23719;DHT22;43322;52.230;5.702;2023-06-26T01:44:27;21.30;99.90
23719;DHT22;43322;52.230;5.702;2023-06-26T01:46:59;21.40;99.90
23719;DHT22;43322;52.230;5.702;2023-06-26T01:49:33;21.40;99.90
23719;DHT22;43322;52.230;5.702;2023-06-26T01:52:07;21.40;99.90
23719;DHT22;43322;52.230;5.702;2023-06-26T01:54:39;21.60;99.90
23719;DHT22;43322;52.230;5.702;2023-06-26T01:57:09;21.60;99.90
23719;DHT22;43322;52.230;5.702;2023-06-26T01:59:39;21.60;99.90
23719;DHT22;43322;52.230;5.702;2023-06-26T02:02:07;21.60;99.90
23719;DHT22;43322;52.230;5.702;2023-06-26T02:04:33;21.60;99.90
23719;DHT22;43322;52.230;5.702;2023-06-26T02:07:00;21.60;99.90
23719;DHT22;43322;52.230;5.702;2023-06-26T02:09:27;21.70;99.90
23719;DHT22;43322;52.230;5.702;2023-06-26T02:11:53;21.70;99.90
23719;DHT22;43322;52.230;5.702;2023-06-26T02:14:20;21.70;99.90
23719;DHT22;43322;52.230;5.702;2023-06-26T02:16:48;21.80;99.90
23719;DHT22;43322;52.230;5.702;2023-06-26T02:19:15;21.70;99.90
23719;DHT22;43322;52.230;5.702;2023-06-26T02:21:47;21.70;99.90
23719;DHT22;43322;52.230;5.702;2023-06-26T02:24:13;21.70;99.90
23719;DHT22;43322;52.230;5.702;2023-06-26T02:26:40;21.80;99.90
23719;DHT22;43322;52.230;5.702;2023-06-26T02:29:07;21.70;99.90
23719;DHT22;43322;52.230;5.702;2023-06-26T02:31:33;21.60;99.90
23719;DHT22;43322;52.230;5.702;2023-06-26T02:34:01;21.60;99.90
23719;DHT22;43322;52.230;5.702;2023-06-26T02:36:28;21.60;99.90
23719;DHT22;43322;52.230;5.702;2023-06-26T02:38:55;21.60;99.90
23719;DHT22;43322;52.230;5.702;2023-06-26T02:41:21;21.50;99.90
23719;DHT22;43322;52.230;5.702;2023-06-26T02:43:48;21.60;99.90
23719;DHT22;43322;52.230;5.702;2023-06-26T02:46:15;21.50;99.90
23719;DHT22;43322;52.230;5.702;2023-06-26T02:48:41;21.50;99.90
23719;DHT22;43322;52.230;5.702;2023-06-26T02:51:09;21.20;99.90
23719;DHT22;43322;52.230;5.702;2023-06-26T02:53:36;21.50;99.90
23719;DHT22;43322;52.230;5.702;2023-06-26T02:56:03;21.40;99.90
23719;DHT22;43322;52.230;5.702;2023-06-26T02:58:30;21.40;99.90
23719;DHT22;43322;52.230;5.702;2023-06-26T03:00:56;21.30;99.90
23719;DHT22;43322;52.230;5.702;2023-06-26T03:03:23;21.30;99.90
23719;DHT22;43322;52.230;5.702;2023-06-26T03:05:49;21.20;99.90
23719;DHT22;43322;52.230;5.702;2023-06-26T03:08:17;21.20;99.90
23719;DHT22;43322;52.230;5.702;2023-06-26T03:10:44;21.30;99.90
23719;DHT22;43322;52.230;5.702;2023-06-26T03:13:11;21.30;99.90
23719;DHT22;43322;52.230;5.702;2023-06-26T03:15:38;21.30;99.90
23719;DHT22;43322;52.230;5.702;2023-06-26T03:18:04;21.20;99.90
23719;DHT22;43322;52.230;5.702;2023-06-26T03:20:31;21.20;99.90
23719;DHT22;43322;52.230;5.702;2023-06-26T03:22:58;21.20;99.90
23719;DHT22;43322;52.230;5.702;2023-06-26T03:25:26;21.10;99.90
23719;DHT22;43322;52.230;5.702;2023-06-26T03:27:52;21.10;99.90
23719;DHT22;43322;52.230;5.702;2023-06-26T03:30:19;21.10;99.90
23719;DHT22;43322;52.230;5.702;2023-06-26T03:32:46;21.10;99.90
23719;DHT22;43322;52.230;5.702;2023-06-26T03:35:12;21.00;99.90
23719;DHT22;43322;52.230;5.702;2023-06-26T03:37:40;20.90;99.90
23719;DHT22;43322;52.230;5.702;2023-06-26T03:40:08;20.80;99.90
23719;DHT22;43322;52.230;5.702;2023-06-26T03:42:36;20.80;99.90
23719;DHT22;43322;52.230;5.702;2023-06-26T03:45:03;20.70;99.90
23719;DHT22;43322;52.230;5.702;2023-06-26T03:47:29;20.70;99.90
23719;DHT22;43322;52.230;5.702;2023-06-26T03:49:56;20.80;99.90
23719;DHT22;43322;52.230;5.702;2023-06-26T03:52:23;20.70;99.90
23719;DHT22;43322;52.230;5.702;2023-06-26T03:54:49;20.70;99.90
23719;DHT22;43322;52.230;5.702;2023-06-26T03:57:16;20.80;99.90
23719;DHT22;43322;52.230;5.702;2023-06-26T03:59:44;20.70;99.90
23719;DHT22;43322;52.230;5.702;2023-06-26T04:02:11;20.80;99.90
23719;DHT22;43322;52.230;5.702;2023-06-26T04:04:37;20.80;99.90
23719;DHT22;43322;52.230;5.702;2023-06-26T04:07:04;20.80;99.90
23719;DHT22;43322;52.230;5.702;2023-06-26T04:09:31;20.90;99.90
23719;DHT22;43322;52.230;5.702;2023-06-26T04:11:58;20.90;99.90
23719;DHT22;43322;52.230;5.702;2023-06-26T04:14:24;20.90;99.90
23719;DHT22;43322;52.230;5.702;2023-06-26T04:16:52;20.80;99.90
23719;DHT22;43322;52.230;5.702;2023-06-26T04:19:19;20.80;99.90
23719;DHT22;43322;52.230;5.702;2023-06-26T04:21:46;20.80;99.90
23719;DHT22;43322;52.230;5.702;2023-06-26T04:24:12;20.70;99.90
23719;DHT22;43322;52.230;5.702;2023-06-26T04:26:39;20.50;99.90
23719;DHT22;43322;52.230;5.702;2023-06-26T04:29:06;20.40;99.90
23719;DHT22;43322;52.230;5.702;2023-06-26T04:31:33;20.40;99.90
23719;DHT22;43322;52.230;5.702;2023-06-26T04:34:01;20.40;99.90
23719;DHT22;43322;52.230;5.702;2023-06-26T04:36:28;20.40;99.90
23719;DHT22;43322;52.230;5.702;2023-06-26T04:38:54;20.50;99.90
23719;DHT22;43322;52.230;5.702;2023-06-26T04:41:21;20.40;99.90
23719;DHT22;43322;52.230;5.702;2023-06-26T04:43:48;20.40;99.90
23719;DHT22;43322;52.230;5.702;2023-06-26T04:46:15;20.40;99.90
23719;DHT22;43322;52.230;5.702;2023-06-26T04:48:41;20.40;99.90
23719;DHT22;43322;52.230;5.702;2023-06-26T04:51:11;20.30;99.90
23719;DHT22;43322;52.230;5.702;2023-06-26T04:53:37;20.30;99.90
23719;DHT22;43322;52.230;5.702;2023-06-26T04:56:04;20.30;99.90
23719;DHT22;43322;52.230;5.702;2023-06-26T04:58:31;20.30;99.90
23719;DHT22;43322;52.230;5.702;2023-06-26T05:00:57;20.40;99.90
23719;DHT22;43322;52.230;5.702;2023-06-26T05:03:24;20.40;99.90
23719;DHT22;43322;52.230;5.702;2023-06-26T05:05:51;20.40;99.90
23719;DHT22;43322;52.230;5.702;2023-06-26T05:08:21;20.40;99.90
23719;DHT22;43322;52.230;5.702;2023-06-26T05:10:48;20.50;99.90
23719;DHT22;43322;52.230;5.702;2023-06-26T05:13:14;20.40;99.90
23719;DHT22;43322;52.230;5.702;2023-06-26T05:15:43;20.50;99.90
23719;DHT22;43322;52.230;5.702;2023-06-26T05:18:09;20.40;99.90
23719;DHT22;43322;52.230;5.702;2023-06-26T05:20:37;20.30;99.90
23719;DHT22;43322;52.230;5.702;2023-06-26T05:23:04;20.30;99.90
23719;DHT22;43322;52.230;5.702;2023-06-26T05:25:33;20.30;99.90
23719;DHT22;43322;52.230;5.702;2023-06-26T05:28:01;20.30;99.90
23719;DHT22;43322;52.230;5.702;2023-06-26T05:30:28;20.30;99.90
23719;DHT22;43322;52.230;5.702;2023-06-26T05:32:56;20.40;99.90
23719;DHT22;43322;52.230;5.702;2023-06-26T05:35:28;20.40;99.90
23719;DHT22;43322;52.230;5.702;2023-06-26T05:37:55;20.50;99.90
23719;DHT22;43322;52.230;5.702;2023-06-26T05:40:23;20.50;99.90
23719;DHT22;43322;52.230;5.702;2023-06-26T05:42:52;20.50;99.90
23719;DHT22;43322;52.230;5.702;2023-06-26T05:45:18;20.60;99.90
23719;DHT22;43322;52.230;5.702;2023-06-26T05:47:45;20.80;99.90
23719;DHT22;43322;52.230;5.702;2023-06-26T05:50:13;20.70;99.90
23719;DHT22;43322;52.230;5.702;2023-06-26T05:52:40;20.60;99.90
23719;DHT22;43322;52.230;5.702;2023-06-26T05:55:08;20.70;99.90
23719;DHT22;43322;52.230;5.702;2023-06-26T05:57:36;20.70;99.90
23719;DHT22;43322;52.230;5.702;2023-06-26T06:00:06;20.70;99.90
23719;DHT22;43322;52.230;5.702;2023-06-26T06:02:36;20.70;99.90
23719;DHT22;43322;52.230;5.702;2023-06-26T06:05:03;20.70;99.90
23719;DHT22;43322;52.230;5.702;2023-06-26T06:07:31;20.70;99.90
23719;DHT22;43322;52.230;5.702;2023-06-26T06:09:58;20.70;99.90
23719;DHT22;43322;52.230;5.702;2023-06-26T06:12:24;20.80;99.90
23719;DHT22;43322;52.230;5.702;2023-06-26T06:14:51;20.80;99.90
23719;DHT22;43322;52.230;5.702;2023-06-26T06:17:19;20.80;99.90
23719;DHT22;43322;52.230;5.702;2023-06-26T06:19:46;20.80;99.90
23719;DHT22;43322;52.230;5.702;2023-06-26T06:22:12;21.00;99.90
23719;DHT22;43322;52.230;5.702;2023-06-26T06:24:39;21.00;99.90
23719;DHT22;43322;52.230;5.702;2023-06-26T06:27:06;20.90;99.90
23719;DHT22;43322;52.230;5.702;2023-06-26T06:29:32;20.90;99.90
23719;DHT22;43322;52.230;5.702;2023-06-26T06:31:59;21.00;99.90
23719;DHT22;43322;52.230;5.702;2023-06-26T06:34:27;21.00;99.90
23719;DHT22;43322;52.230;5.702;2023-06-26T06:36:54;21.00;99.90
23719;DHT22;43322;52.230;5.702;2023-06-26T06:39:20;21.10;99.90
23719;DHT22;43322;52.230;5.702;2023-06-26T06:41:47;21.20;99.90
23719;DHT22;43322;52.230;5.702;2023-06-26T06:44:13;21.30;99.90
23719;DHT22;43322;52.230;5.702;2023-06-26T06:46:40;21.40;99.90
23719;DHT22;43322;52.230;5.702;2023-06-26T06:49:08;21.40;99.90
23719;DHT22;43322;52.230;5.702;2023-06-26T06:51:36;21.30;99.90
23719;DHT22;43322;52.230;5.702;2023-06-26T06:54:02;21.20;99.90
23719;DHT22;43322;52.230;5.702;2023-06-26T06:56:29;21.20;99.90
23719;DHT22;43322;52.230;5.702;2023-06-26T06:58:55;21.30;99.90
23719;DHT22;43322;52.230;5.702;2023-06-26T07:01:22;21.50;99.90
23719;DHT22;43322;52.230;5.702;2023-06-26T07:03:49;21.50;99.90
23719;DHT22;43322;52.230;5.702;2023-06-26T07:06:15;21.60;99.90
23719;DHT22;43322;52.230;5.702;2023-06-26T07:08:43;21.70;99.90
23719;DHT22;43322;52.230;5.702;2023-06-26T07:11:10;21.60;99.90
23719;DHT22;43322;52.230;5.702;2023-06-26T07:13:37;21.50;99.90
23719;DHT22;43322;52.230;5.702;2023-06-26T07:16:04;21.40;99.90
23719;DHT22;43322;52.230;5.702;2023-06-26T07:18:30;21.40;99.90
23719;DHT22;43322;52.230;5.702;2023-06-26T07:20:57;21.50;99.90
23719;DHT22;43322;52.230;5.702;2023-06-26T07:23:24;21.50;99.90
23719;DHT22;43322;52.230;5.702;2023-06-26T07:25:52;21.40;99.90
23719;DHT22;43322;52.230;5.702;2023-06-26T07:28:18;21.50;99.90
23719;DHT22;43322;52.230;5.702;2023-06-26T07:30:45;21.80;99.90
23719;DHT22;43322;52.230;5.702;2023-06-26T07:33:12;22.00;99.90
23719;DHT22;43322;52.230;5.702;2023-06-26T07:35:38;22.10;99.90
23719;DHT22;43322;52.230;5.702;2023-06-26T07:38:05;22.00;99.90
23719;DHT22;43322;52.230;5.702;2023-06-26T07:40:32;21.90;99.90
23719;DHT22;43322;52.230;5.702;2023-06-26T07:43:00;21.80;99.90
23719;DHT22;43322;52.230;5.702;2023-06-26T07:45:26;22.00;99.90
23719;DHT22;43322;52.230;5.702;2023-06-26T07:47:53;22.30;99.90
23719;DHT22;43322;52.230;5.702;2023-06-26T07:50:20;22.30;99.90
23719;DHT22;43322;52.230;5.702;2023-06-26T07:52:48;22.50;99.90
23719;DHT22;43322;52.230;5.702;2023-06-26T07:55:15;22.40;99.90
23719;DHT22;43322;52.230;5.702;2023-06-26T07:57:41;22.20;99.90
23719;DHT22;43322;52.230;5.702;2023-06-26T08:00:10;22.00;99.90
23719;DHT22;43322;52.230;5.702;2023-06-26T08:02:37;21.90;99.90
23719;DHT22;43322;52.230;5.702;2023-06-26T08:05:05;22.00;99.90
23719;DHT22;43322;52.230;5.702;2023-06-26T08:07:32;22.10;99.90
23719;DHT22;43322;52.230;5.702;2023-06-26T08:09:58;22.20;99.90
23719;DHT22;43322;52.230;5.702;2023-06-26T08:12:25;22.20;99.90
23719;DHT22;43322;52.230;5.702;2023-06-26T08:14:51;22.30;99.90
23719;DHT22;43322;52.230;5.702;2023-06-26T08:17:20;22.10;99.90
23719;DHT22;43322;52.230;5.702;2023-06-26T08:19:46;22.30;99.90
23719;DHT22;43322;52.230;5.702;2023-06-26T08:22:13;22.50;99.90
23719;DHT22;43322;52.230;5.702;2023-06-26T08:24:40;22.50;99.90
23719;DHT22;43322;52.230;5.702;2023-06-26T08:27:06;22.50;99.90
23719;DHT22;43322;52.230;5.702;2023-06-26T08:29:33;22.30;99.90
23719;DHT22;43322;52.230;5.702;2023-06-26T08:32:00;22.50;99.90
23719;DHT22;43322;52.230;5.702;2023-06-26T08:34:28;22.70;99.90
23719;DHT22;43322;52.230;5.702;2023-06-26T08:36:55;22.50;99.90
23719;DHT22;43322;52.230;5.702;2023-06-26T08:39:22;22.10;99.90
23719;DHT22;43322;52.230;5.702;2023-06-26T08:41:48;21.90;99.90
23719;DHT22;43322;52.230;5.702;2023-06-26T08:44:15;21.80;99.90
23719;DHT22;43322;52.230;5.702;2023-06-26T08:46:43;22.30;99.90
23719;DHT22;43322;52.230;5.702;2023-06-26T08:49:14;22.60;99.90
23719;DHT22;43322;52.230;5.702;2023-06-26T08:51:50;22.40;99.90
23719;DHT22;43322;52.230;5.702;2023-06-26T08:54:22;22.10;99.90
23719;DHT22;43322;52.230;5.702;2023-06-26T08:56:54;22.50;99.90
23719;DHT22;43322;52.230;5.702;2023-06-26T08:59:22;23.10;99.90
23719;DHT22;43322;52.230;5.702;2023-06-26T09:01:49;23.70;99.90
23719;DHT22;43322;52.230;5.702;2023-06-26T09:04:16;24.20;99.90
23719;DHT22;43322;52.230;5.702;2023-06-26T09:06:45;24.10;99.90
23719;DHT22;43322;52.230;5.702;2023-06-26T09:09:12;23.30;99.90
23719;DHT22;43322;52.230;5.702;2023-06-26T09:11:39;22.90;99.90
23719;DHT22;43322;52.230;5.702;2023-06-26T09:14:06;23.60;99.90
23719;DHT22;43322;52.230;5.702;2023-06-26T09:16:39;23.50;99.90
23719;DHT22;43322;52.230;5.702;2023-06-26T09:19:09;23.50;99.90
23719;DHT22;43322;52.230;5.702;2023-06-26T09:21:36;23.10;99.90
23719;DHT22;43322;52.230;5.702;2023-06-26T09:24:06;23.30;99.90
23719;DHT22;43322;52.230;5.702;2023-06-26T09:26:35;23.60;99.90
23719;DHT22;43322;52.230;5.702;2023-06-26T09:29:01;23.40;99.90
23719;DHT22;43322;52.230;5.702;2023-06-26T09:31:29;22.90;99.90
23719;DHT22;43322;52.230;5.702;2023-06-26T09:33:58;23.00;99.90
23719;DHT22;43322;52.230;5.702;2023-06-26T09:36:28;23.60;99.90
23719;DHT22;43322;52.230;5.702;2023-06-26T09:39:00;23.50;99.90
23719;DHT22;43322;52.230;5.702;2023-06-26T09:41:28;23.00;99.90
23719;DHT22;43322;52.230;5.702;2023-06-26T09:43:58;22.90;99.90
23719;DHT22;43322;52.230;5.702;2023-06-26T09:46:28;23.60;99.90
23719;DHT22;43322;52.230;5.702;2023-06-26T09:49:00;24.30;99.90
23719;DHT22;43322;52.230;5.702;2023-06-26T09:51:29;24.40;99.90
23719;DHT22;43322;52.230;5.702;2023-06-26T09:53:56;24.30;99.90
23719;DHT22;43322;52.230;5.702;2023-06-26T09:56:24;24.30;99.90
23719;DHT22;43322;52.230;5.702;2023-06-26T09:58:52;24.40;99.90
23719;DHT22;43322;52.230;5.702;2023-06-26T10:01:20;24.70;99.90
23719;DHT22;43322;52.230;5.702;2023-06-26T10:03:46;25.20;99.90
23719;DHT22;43322;52.230;5.702;2023-06-26T10:06:13;25.70;99.90
23719;DHT22;43322;52.230;5.702;2023-06-26T10:08:41;26.30;99.90
23719;DHT22;43322;52.230;5.702;2023-06-26T10:11:13;25.50;99.90
23719;DHT22;43322;52.230;5.702;2023-06-26T10:13:43;24.80;99.90
23719;DHT22;43322;52.230;5.702;2023-06-26T10:16:13;25.50;99.90
23719;DHT22;43322;52.230;5.702;2023-06-26T10:18:43;26.30;99.90
23719;DHT22;43322;52.230;5.702;2023-06-26T10:21:11;26.70;99.90
23719;DHT22;43322;52.230;5.702;2023-06-26T10:23:40;27.10;99.90
23719;DHT22;43322;52.230;5.702;2023-06-26T10:26:09;26.80;99.90
23719;DHT22;43322;52.230;5.702;2023-06-26T10:28:38;26.30;99.90
23719;DHT22;43322;52.230;5.702;2023-06-26T10:31:07;25.80;99.90
23719;DHT22;43322;52.230;5.702;2023-06-26T10:33:36;26.20;99.90
23719;DHT22;43322;52.230;5.702;2023-06-26T10:36:14;27.20;99.90
23719;DHT22;43322;52.230;5.702;2023-06-26T10:38:48;27.80;99.90
23719;DHT22;43322;52.230;5.702;2023-06-26T10:41:20;27.80;99.90
23719;DHT22;43322;52.230;5.702;2023-06-26T10:43:49;27.80;99.90
23719;DHT22;43322;52.230;5.702;2023-06-26T10:46:18;27.80;99.90
23719;DHT22;43322;52.230;5.702;2023-06-26T10:48:58;27.20;99.90
23719;DHT22;43322;52.230;5.702;2023-06-26T10:51:26;27.80;99.90
23719;DHT22;43322;52.230;5.702;2023-06-26T10:53:55;28.30;99.90
23719;DHT22;43322;52.230;5.702;2023-06-26T10:56:41;28.70;99.90
23719;DHT22;43322;52.230;5.702;2023-06-26T10:59:14;28.40;99.90
23719;DHT22;43322;52.230;5.702;2023-06-26T11:01:41;28.30;99.90
23719;DHT22;43322;52.230;5.702;2023-06-26T11:04:10;27.80;99.90
23719;DHT22;43322;52.230;5.702;2023-06-26T11:06:38;27.30;99.90
23719;DHT22;43322;52.230;5.702;2023-06-26T11:09:10;26.50;99.90
23719;DHT22;43322;52.230;5.702;2023-06-26T11:11:59;26.20;99.90
23719;DHT22;43322;52.230;5.702;2023-06-26T11:14:31;26.60;99.90
23719;DHT22;43322;52.230;5.702;2023-06-26T11:16:58;25.90;99.90
23719;DHT22;43322;52.230;5.702;2023-06-26T11:19:27;27.10;99.90
23719;DHT22;43322;52.230;5.702;2023-06-26T11:22:04;27.30;99.90
23719;DHT22;43322;52.230;5.702;2023-06-26T11:24:32;27.80;99.90
23719;DHT22;43322;52.230;5.702;2023-06-26T11:27:03;28.80;99.90
23719;DHT22;43322;52.230;5.702;2023-06-26T11:29:31;29.00;99.90
23719;DHT22;43322;52.230;5.702;2023-06-26T11:32:00;28.80;99.90
23719;DHT22;43322;52.230;5.702;2023-06-26T11:34:31;28.60;99.90
23719;DHT22;43322;52.230;5.702;2023-06-26T11:36:58;28.80;99.90
23719;DHT22;43322;52.230;5.702;2023-06-26T11:39:26;28.70;99.30
23719;DHT22;43322;52.230;5.702;2023-06-26T11:41:53;29.10;99.90
23719;DHT22;43322;52.230;5.702;2023-06-26T11:44:21;29.50;99.90
23719;DHT22;43322;52.230;5.702;2023-06-26T11:46:51;29.50;99.90
23719;DHT22;43322;52.230;5.702;2023-06-26T11:49:21;28.40;99.90
23719;DHT22;43322;52.230;5.702;2023-06-26T11:51:50;27.80;99.90
23719;DHT22;43322;52.230;5.702;2023-06-26T11:54:23;28.20;99.90
23719;DHT22;43322;52.230;5.702;2023-06-26T11:56:54;28.50;99.90
23719;DHT22;43322;52.230;5.702;2023-06-26T11:59:23;28.30;99.90
23719;DHT22;43322;52.230;5.702;2023-06-26T12:01:50;28.70;99.90
23719;DHT22;43322;52.230;5.702;2023-06-26T12:04:18;28.80;99.90
23719;DHT22;43322;52.230;5.702;2023-06-26T12:06:47;29.20;99.90
23719;DHT22;43322;52.230;5.702;2023-06-26T12:09:18;28.80;99.90
23719;DHT22;43322;52.230;5.702;2023-06-26T12:11:47;28.90;99.90
23719;DHT22;43322;52.230;5.702;2023-06-26T12:14:15;28.70;99.90
23719;DHT22;43322;52.230;5.702;2023-06-26T12:16:43;29.30;99.90
23719;DHT22;43322;52.230;5.702;2023-06-26T12:19:09;28.70;99.90
23719;DHT22;43322;52.230;5.702;2023-06-26T12:21:47;29.30;99.90
23719;DHT22;43322;52.230;5.702;2023-06-26T12:24:20;28.50;98.60
23719;DHT22;43322;52.230;5.702;2023-06-26T12:26:49;28.00;98.40
23719;DHT22;43322;52.230;5.702;2023-06-26T12:29:18;28.30;98.90
23719;DHT22;43322;52.230;5.702;2023-06-26T12:31:46;27.80;95.40
23719;DHT22;43322;52.230;5.702;2023-06-26T12:34:18;28.00;99.90
23719;DHT22;43322;52.230;5.702;2023-06-26T12:36:46;28.30;98.30
23719;DHT22;43322;52.230;5.702;2023-06-26T12:39:16;28.20;96.80
23719;DHT22;43322;52.230;5.702;2023-06-26T12:41:49;28.60;99.90
23719;DHT22;43322;52.230;5.702;2023-06-26T12:44:24;28.30;96.50
23719;DHT22;43322;52.230;5.702;2023-06-26T12:46:54;26.90;98.80
23719;DHT22;43322;52.230;5.702;2023-06-26T12:49:29;26.90;99.90
23719;DHT22;43322;52.230;5.702;2023-06-26T12:51:56;26.10;97.20
23719;DHT22;43322;52.230;5.702;2023-06-26T12:54:23;25.40;99.90
23719;DHT22;43322;52.230;5.702;2023-06-26T12:56:51;25.00;99.90
23719;DHT22;43322;52.230;5.702;2023-06-26T12:59:18;24.60;99.90
23719;DHT22;43322;52.230;5.702;2023-06-26T13:01:45;24.50;99.90
23719;DHT22;43322;52.230;5.702;2023-06-26T13:04:11;24.80;99.90
23719;DHT22;43322;52.230;5.702;2023-06-26T13:06:38;24.90;99.90
23719;DHT22;43322;52.230;5.702;2023-06-26T13:09:05;24.80;99.90
23719;DHT22;43322;52.230;5.702;2023-06-26T13:11:32;24.80;99.90
23719;DHT22;43322;52.230;5.702;2023-06-26T13:14:00;24.90;99.90
23719;DHT22;43322;52.230;5.702;2023-06-26T13:16:27;26.10;99.90
23719;DHT22;43322;52.230;5.702;2023-06-26T13:18:54;26.80;96.60
23719;DHT22;43322;52.230;5.702;2023-06-26T13:21:21;26.80;99.90
23719;DHT22;43322;52.230;5.702;2023-06-26T13:23:48;26.90;96.00
23719;DHT22;43322;52.230;5.702;2023-06-26T13:26:14;27.20;94.80
23719;DHT22;43322;52.230;5.702;2023-06-26T13:28:41;27.90;97.30
23719;DHT22;43322;52.230;5.702;2023-06-26T13:31:09;27.90;96.40
23719;DHT22;43322;52.230;5.702;2023-06-26T13:33:35;27.70;95.80
23719;DHT22;43322;52.230;5.702;2023-06-26T13:36:03;27.80;99.20
23719;DHT22;43322;52.230;5.702;2023-06-26T13:38:33;28.60;99.90
23719;DHT22;43322;52.230;5.702;2023-06-26T13:41:00;28.50;96.30
23719;DHT22;43322;52.230;5.702;2023-06-26T13:43:28;28.60;99.90
23719;DHT22;43322;52.230;5.702;2023-06-26T13:45:55;27.80;99.60
23719;DHT22;43322;52.230;5.702;2023-06-26T13:48:23;27.90;99.90
23719;DHT22;43322;52.230;5.702;2023-06-26T13:50:50;28.20;99.90
23719;DHT22;43322;52.230;5.702;2023-06-26T13:53:17;28.00;98.90
23719;DHT22;43322;52.230;5.702;2023-06-26T13:55:44;27.10;99.90
23719;DHT22;43322;52.230;5.702;2023-06-26T13:58:10;26.10;96.70
23719;DHT22;43322;52.230;5.702;2023-06-26T14:00:38;25.30;99.90
23719;DHT22;43322;52.230;5.702;2023-06-26T14:03:05;24.50;99.90
23719;DHT22;43322;52.230;5.702;2023-06-26T14:05:34;25.20;99.90
23719;DHT22;43322;52.230;5.702;2023-06-26T14:08:04;26.00;99.90
23719;DHT22;43322;52.230;5.702;2023-06-26T14:10:31;26.90;99.90
23719;DHT22;43322;52.230;5.702;2023-06-26T14:12:58;27.20;99.90
23719;DHT22;43322;52.230;5.702;2023-06-26T14:15:25;27.20;99.50
23719;DHT22;43322;52.230;5.702;2023-06-26T14:17:51;26.80;99.40
23719;DHT22;43322;52.230;5.702;2023-06-26T14:20:18;27.20;99.30
23719;DHT22;43322;52.230;5.702;2023-06-26T14:22:47;27.70;99.90
23719;DHT22;43322;52.230;5.702;2023-06-26T14:25:15;27.70;99.90
23719;DHT22;43322;52.230;5.702;2023-06-26T14:27:42;27.60;99.90
23719;DHT22;43322;52.230;5.702;2023-06-26T14:30:10;27.40;97.00
23719;DHT22;43322;52.230;5.702;2023-06-26T14:32:37;26.70;97.00
23719;DHT22;43322;52.230;5.702;2023-06-26T14:35:04;26.20;99.90
23719;DHT22;43322;52.230;5.702;2023-06-26T14:37:31;26.30;99.90
23719;DHT22;43322;52.230;5.702;2023-06-26T14:39:59;26.90;99.90
23719;DHT22;43322;52.230;5.702;2023-06-26T14:42:25;27.40;99.90
23719;DHT22;43322;52.230;5.702;2023-06-26T14:44:52;27.30;99.90
23719;DHT22;43322;52.230;5.702;2023-06-26T14:47:19;27.80;99.90
23719;DHT22;43322;52.230;5.702;2023-06-26T14:49:45;27.40;99.90
23719;DHT22;43322;52.230;5.702;2023-06-26T14:52:12;27.60;99.90
23719;DHT22;43322;52.230;5.702;2023-06-26T14:54:39;28.00;96.70
23719;DHT22;43322;52.230;5.702;2023-06-26T14:57:07;27.90;96.20
23719;DHT22;43322;52.230;5.702;2023-06-26T14:59:34;26.80;97.40
23719;DHT22;43322;52.230;5.702;2023-06-26T15:02:01;26.80;99.90
23719;DHT22;43322;52.230;5.702;2023-06-26T15:04:27;27.10;99.90
23719;DHT22;43322;52.230;5.702;2023-06-26T15:06:56;27.30;97.50
23719;DHT22;43322;52.230;5.702;2023-06-26T15:09:23;27.60;99.90
23719;DHT22;43322;52.230;5.702;2023-06-26T15:11:50;27.70;95.90
23719;DHT22;43322;52.230;5.702;2023-06-26T15:14:18;27.90;99.90
23719;DHT22;43322;52.230;5.702;2023-06-26T15:16:44;27.10;95.80
23719;DHT22;43322;52.230;5.702;2023-06-26T15:19:11;26.50;99.90
23719;DHT22;43322;52.230;5.702;2023-06-26T15:21:38;25.90;98.00
23719;DHT22;43322;52.230;5.702;2023-06-26T15:24:05;25.20;97.80
23719;DHT22;43322;52.230;5.702;2023-06-26T15:26:32;24.80;99.90
23719;DHT22;43322;52.230;5.702;2023-06-26T15:28:59;25.00;99.90
23719;DHT22;43322;52.230;5.702;2023-06-26T15:31:29;24.80;99.30
23719;DHT22;43322;52.230;5.702;2023-06-26T15:33:56;24.70;99.60